createdAt,value
2024-01-27T00:00:41.461Z,22.86
2024-01-27T00:01:41.342Z,22.86
2024-01-27T00:02:41.363Z,22.87
2024-01-27T00:03:41.414Z,22.87
2024-01-27T00:04:41.463Z,22.86
2024-01-27T00:05:41.480Z,22.86
2024-01-27T00:06:41.507Z,22.86
2024-01-27T00:07:41.465Z,22.86
2024-01-27T00:08:41.467Z,22.85
2024-01-27T00:09:41.483Z,22.86
2024-01-27T00:10:41.490Z,22.86
2024-01-27T00:11:41.499Z,22.87
2024-01-27T00:12:41.487Z,22.86
2024-01-27T00:13:41.492Z,22.86
2024-01-27T00:14:41.515Z,22.86
2024-01-27T00:15:41.546Z,22.86
2024-01-27T00:16:41.512Z,22.85
2024-01-27T00:17:41.550Z,22.85
2024-01-27T00:18:41.605Z,22.86
2024-01-27T00:19:42.006Z,22.86
2024-01-27T00:20:41.518Z,22.87
2024-01-27T00:21:41.526Z,22.85
2024-01-27T00:22:41.540Z,22.85
2024-01-27T00:23:41.549Z,22.85
2024-01-27T00:24:41.558Z,22.86
2024-01-27T00:25:41.574Z,22.86
2024-01-27T00:26:41.610Z,22.85
2024-01-27T00:27:41.645Z,22.84
2024-01-27T00:28:41.551Z,22.85
2024-01-27T00:29:41.592Z,22.86
2024-01-27T00:30:41.564Z,22.85
2024-01-27T00:31:41.562Z,22.85
2024-01-27T00:32:41.608Z,22.86
2024-01-27T00:33:41.673Z,22.85
2024-01-27T00:34:41.619Z,22.85
2024-01-27T00:35:41.578Z,22.84
2024-01-27T00:36:41.587Z,22.85
2024-01-27T00:37:41.597Z,22.86
2024-01-27T00:38:41.603Z,22.86
2024-01-27T00:39:41.625Z,22.86
2024-01-27T00:40:41.655Z,22.86
2024-01-27T00:41:41.696Z,22.86
2024-01-27T00:42:41.724Z,22.86
2024-01-27T00:43:41.764Z,22.86
2024-01-27T00:44:41.801Z,22.86
2024-01-27T00:45:41.829Z,22.86
2024-01-27T00:46:41.859Z,22.85
2024-01-27T00:47:41.984Z,22.85
2024-01-27T00:48:42.079Z,22.87
2024-01-27T00:49:42.103Z,22.87
2024-01-27T00:50:42.081Z,22.85
2024-01-27T00:51:42.074Z,22.86
2024-01-27T00:52:42.083Z,22.85
2024-01-27T00:53:42.132Z,22.85
2024-01-27T00:54:42.236Z,22.85
2024-01-27T00:55:42.225Z,22.86
2024-01-27T00:56:42.268Z,22.85
2024-01-27T00:57:42.293Z,22.86
2024-01-27T00:58:42.353Z,22.87
2024-01-27T00:59:42.378Z,22.87
2024-01-27T01:00:42.549Z,22.86
2024-01-27T01:01:42.550Z,22.87
2024-01-27T01:02:42.531Z,22.87
2024-01-27T01:03:42.719Z,22.88
2024-01-27T01:04:42.605Z,22.88
2024-01-27T01:05:42.652Z,22.87
2024-01-27T01:06:42.687Z,22.86
2024-01-27T01:07:42.700Z,22.84
2024-01-27T01:08:42.728Z,22.85
2024-01-27T01:09:42.771Z,22.85
2024-01-27T01:10:42.798Z,22.85
2024-01-27T01:11:42.835Z,22.85
2024-01-27T01:12:42.862Z,22.85
2024-01-27T01:13:42.906Z,22.84
2024-01-27T01:14:42.941Z,22.84
2024-01-27T01:15:42.980Z,22.84
2024-01-27T01:16:43.037Z,22.83
2024-01-27T01:17:43.077Z,22.82
2024-01-27T01:18:43.192Z,22.83
2024-01-27T01:19:43.139Z,22.83
2024-01-27T01:20:43.151Z,22.84
2024-01-27T01:21:43.196Z,22.84
2024-01-27T01:22:43.238Z,22.84
2024-01-27T01:23:43.272Z,22.85
2024-01-27T01:24:43.325Z,22.84
2024-01-27T01:25:43.371Z,22.84
2024-01-27T01:26:43.378Z,22.85
2024-01-27T01:27:43.425Z,22.86
2024-01-27T01:28:43.501Z,22.86
2024-01-27T01:29:43.518Z,22.85
2024-01-27T01:30:43.580Z,22.85
2024-01-27T01:31:43.629Z,22.85
2024-01-27T01:32:43.686Z,22.83
2024-01-27T01:33:43.787Z,22.84
2024-01-27T01:34:43.776Z,22.84
2024-01-27T01:35:43.713Z,22.83
2024-01-27T01:36:43.745Z,22.84
2024-01-27T01:37:43.761Z,22.83
2024-01-27T01:38:43.835Z,22.83
2024-01-27T01:39:43.787Z,22.81
2024-01-27T01:40:43.799Z,22.82
2024-01-27T01:41:43.795Z,22.82
2024-01-27T01:42:43.811Z,22.81
2024-01-27T01:43:43.800Z,22.82
2024-01-27T01:44:43.823Z,22.82
2024-01-27T01:45:43.809Z,22.81
2024-01-27T01:46:43.829Z,22.81
2024-01-27T01:47:43.891Z,22.81
2024-01-27T01:48:43.986Z,22.81
2024-01-27T01:49:43.944Z,22.81
2024-01-27T01:50:43.848Z,22.82
2024-01-27T01:51:43.846Z,22.82
2024-01-27T01:52:43.853Z,22.82
2024-01-27T01:53:43.852Z,22.82
2024-01-27T01:54:43.852Z,22.82
2024-01-27T01:55:43.862Z,22.82
2024-01-27T01:56:43.886Z,22.82
2024-01-27T01:57:43.888Z,22.82
2024-01-27T01:58:43.882Z,22.82
2024-01-27T01:59:44.035Z,22.82
2024-01-27T02:00:43.962Z,22.82
2024-01-27T02:01:46.171Z,22.82
2024-01-27T02:02:43.897Z,22.82
2024-01-27T02:03:43.895Z,22.83
2024-01-27T02:04:43.976Z,22.83
2024-01-27T02:05:43.957Z,22.83
2024-01-27T02:06:44.018Z,22.83
2024-01-27T02:07:43.941Z,22.83
2024-01-27T02:08:43.949Z,22.84
2024-01-27T02:09:43.944Z,22.84
2024-01-27T02:10:43.955Z,22.84
2024-01-27T02:11:43.967Z,22.84
2024-01-27T02:12:44.002Z,22.84
2024-01-27T02:13:43.977Z,22.84
2024-01-27T02:14:43.999Z,22.83
2024-01-27T02:15:43.996Z,22.83
2024-01-27T02:16:43.995Z,22.83
2024-01-27T02:17:44.112Z,22.84
2024-01-27T02:18:44.068Z,22.83
2024-01-27T02:19:44.210Z,22.83
2024-01-27T02:20:44.006Z,22.84
2024-01-27T02:21:44.031Z,22.84
2024-01-27T02:22:44.040Z,22.83
2024-01-27T02:23:44.038Z,22.83
2024-01-27T02:24:44.062Z,22.82
2024-01-27T02:25:44.030Z,22.82
2024-01-27T02:26:44.043Z,22.82
2024-01-27T02:27:44.031Z,22.82
2024-01-27T02:28:44.081Z,22.82
2024-01-27T02:29:44.098Z,22.83
2024-01-27T02:30:44.171Z,22.83
2024-01-27T02:31:44.161Z,22.83
2024-01-27T02:32:44.226Z,22.82
2024-01-27T02:33:44.351Z,22.81
2024-01-27T02:34:44.298Z,22.81
2024-01-27T02:35:44.268Z,22.82
2024-01-27T02:36:44.319Z,22.82
2024-01-27T02:37:44.339Z,22.82
2024-01-27T02:38:44.353Z,22.83
2024-01-27T02:39:44.397Z,22.82
2024-01-27T02:40:44.407Z,22.83
2024-01-27T02:41:44.442Z,22.83
2024-01-27T02:42:44.478Z,22.82
2024-01-27T02:43:44.498Z,22.83
2024-01-27T02:44:44.540Z,22.83
2024-01-27T02:45:44.587Z,22.82
2024-01-27T02:46:44.595Z,22.82
2024-01-27T02:47:44.735Z,22.82
2024-01-27T02:48:44.810Z,22.82
2024-01-27T02:49:44.888Z,22.82
2024-01-27T02:50:44.712Z,22.82
2024-01-27T02:51:44.734Z,22.82
2024-01-27T02:52:44.791Z,22.84
2024-01-27T02:53:44.798Z,22.84
2024-01-27T02:54:44.818Z,22.84
2024-01-27T02:55:44.831Z,22.84
2024-01-27T02:56:44.869Z,22.83
2024-01-27T02:57:44.895Z,22.82
2024-01-27T02:58:44.921Z,22.83
2024-01-27T02:59:44.918Z,22.82
2024-01-27T03:00:45.038Z,22.82
2024-01-27T03:01:44.933Z,22.81
2024-01-27T03:02:44.930Z,22.81
2024-01-27T03:03:45.022Z,22.81
2024-01-27T03:04:45.018Z,22.81
2024-01-27T03:05:45.063Z,22.82
2024-01-27T03:06:45.083Z,22.82
2024-01-27T03:07:44.962Z,22.82
2024-01-27T03:08:44.973Z,22.82
2024-01-27T03:09:44.987Z,22.83
2024-01-27T03:10:45.002Z,22.82
2024-01-27T03:11:44.979Z,22.82
2024-01-27T03:12:45.032Z,22.81
2024-01-27T03:13:44.992Z,22.81
2024-01-27T03:14:45.028Z,22.80
2024-01-27T03:15:45.031Z,22.81
2024-01-27T03:16:45.033Z,22.80
2024-01-27T03:17:45.062Z,22.80
2024-01-27T03:18:45.114Z,22.81
2024-01-27T03:19:47.145Z,22.81
2024-01-27T03:20:45.034Z,22.81
2024-01-27T03:21:45.064Z,22.80
2024-01-27T03:22:45.047Z,22.80
2024-01-27T03:23:45.057Z,22.79
2024-01-27T03:24:45.064Z,22.80
2024-01-27T03:25:45.093Z,22.79
2024-01-27T03:26:45.078Z,22.78
2024-01-27T03:27:45.799Z,22.78
2024-01-27T03:28:45.088Z,22.79
2024-01-27T03:29:45.086Z,22.80
2024-01-27T03:30:45.097Z,22.79
2024-01-27T03:31:45.116Z,22.80
2024-01-27T03:32:45.242Z,22.80
2024-01-27T03:33:45.195Z,22.80
2024-01-27T03:34:45.278Z,22.80
2024-01-27T03:35:45.112Z,22.80
2024-01-27T03:36:45.129Z,22.79
2024-01-27T03:37:45.124Z,22.79
2024-01-27T03:38:45.137Z,22.79
2024-01-27T03:39:45.149Z,22.79
2024-01-27T03:40:45.151Z,22.79
2024-01-27T03:41:45.140Z,22.79
2024-01-27T03:42:45.153Z,22.80
2024-01-27T03:43:45.247Z,22.79
2024-01-27T03:44:45.172Z,22.79
2024-01-27T03:45:45.196Z,22.79
2024-01-27T03:46:45.199Z,22.79
2024-01-27T03:47:46.778Z,22.80
2024-01-27T03:48:45.339Z,22.80
2024-01-27T03:49:45.321Z,22.79
2024-01-27T03:50:45.202Z,22.79
2024-01-27T03:51:45.219Z,22.79
2024-01-27T03:52:45.235Z,22.78
2024-01-27T03:53:45.258Z,22.78
2024-01-27T03:54:45.258Z,22.77
2024-01-27T03:55:45.237Z,22.77
2024-01-27T03:56:45.259Z,22.76
2024-01-27T03:57:45.280Z,22.75
2024-01-27T03:58:45.272Z,22.77
2024-01-27T03:59:45.287Z,22.77
2024-01-27T04:00:46.178Z,22.77
2024-01-27T04:01:45.302Z,22.77
2024-01-27T04:02:45.302Z,22.78
2024-01-27T04:03:45.344Z,22.79
2024-01-27T04:04:45.421Z,22.79
2024-01-27T04:05:45.378Z,22.78
2024-01-27T04:06:45.495Z,22.78
2024-01-27T04:07:45.368Z,22.77
2024-01-27T04:08:45.385Z,22.77
2024-01-27T04:09:45.443Z,22.78
2024-01-27T04:10:45.406Z,22.79
2024-01-27T04:11:45.411Z,22.79
2024-01-27T04:12:45.408Z,22.78
2024-01-27T04:13:45.420Z,22.78
2024-01-27T04:14:45.429Z,22.76
2024-01-27T04:15:45.443Z,22.77
2024-01-27T04:16:45.431Z,22.77
2024-01-27T04:17:45.458Z,22.78
2024-01-27T04:18:45.628Z,22.78
2024-01-27T04:19:45.584Z,22.78
2024-01-27T04:20:45.465Z,22.78
2024-01-27T04:21:45.458Z,22.78
2024-01-27T04:22:45.462Z,22.78
2024-01-27T04:23:45.454Z,22.78
2024-01-27T04:24:45.490Z,22.78
2024-01-27T04:25:45.481Z,22.78
2024-01-27T04:26:52.713Z,22.75
2024-01-27T04:27:52.713Z,22.75
2024-01-27T04:28:52.768Z,22.76
2024-01-27T04:29:52.785Z,22.77
2024-01-27T04:30:52.787Z,22.78
2024-01-27T04:32:00.006Z,22.75
2024-01-27T04:33:00.108Z,22.76
2024-01-27T04:34:00.243Z,22.76
2024-01-27T04:34:59.993Z,22.76
2024-01-27T04:36:00.024Z,22.76
2024-01-27T04:36:59.994Z,22.76
2024-01-27T04:37:59.986Z,22.76
2024-01-27T04:38:59.998Z,22.76
2024-01-27T04:40:00.617Z,22.77
2024-01-27T04:40:59.977Z,22.75
2024-01-27T04:42:00.034Z,22.75
2024-01-27T04:42:59.985Z,22.76
2024-01-27T04:43:59.999Z,22.77
2024-01-27T04:44:59.996Z,22.77
2024-01-27T04:45:59.977Z,22.76
2024-01-27T04:46:59.959Z,22.77
2024-01-27T04:48:00.091Z,22.76
2024-01-27T04:49:00.079Z,22.77
2024-01-27T04:49:59.970Z,22.77
2024-01-27T04:50:59.957Z,22.77
2024-01-27T04:51:59.930Z,22.77
2024-01-27T04:52:59.956Z,22.76
2024-01-27T04:54:00.020Z,22.76
2024-01-27T04:54:59.936Z,22.74
2024-01-27T04:55:59.943Z,22.75
2024-01-27T04:56:59.976Z,22.75
2024-01-27T04:57:59.908Z,22.75
2024-01-27T04:58:59.914Z,22.75
2024-01-27T04:59:59.935Z,22.75
2024-01-27T05:00:59.920Z,22.74
2024-01-27T05:01:59.883Z,22.74
2024-01-27T05:02:59.964Z,22.75
2024-01-27T05:04:00.052Z,22.74
2024-01-27T05:04:59.979Z,22.74
2024-01-27T05:06:00.089Z,22.75
2024-01-27T05:07:00.232Z,22.75
2024-01-27T05:08:00.097Z,22.76
2024-01-27T05:09:00.103Z,22.76
2024-01-27T05:10:00.172Z,22.76
2024-01-27T05:11:00.171Z,22.76
2024-01-27T05:12:00.248Z,22.76
2024-01-27T05:13:00.259Z,22.76
2024-01-27T05:14:00.240Z,22.76
2024-01-27T05:15:00.423Z,22.76
2024-01-27T05:16:00.224Z,22.76
2024-01-27T05:17:00.211Z,22.76
2024-01-27T05:18:00.414Z,22.76
2024-01-27T05:19:00.278Z,22.75
2024-01-27T05:20:00.288Z,22.74
2024-01-27T05:21:00.220Z,22.73
2024-01-27T05:22:00.189Z,22.73
2024-01-27T05:23:00.187Z,22.73
2024-01-27T05:24:00.235Z,22.74
2024-01-27T05:25:00.182Z,22.73
2024-01-27T05:26:00.184Z,22.73
2024-01-27T05:27:00.274Z,22.73
2024-01-27T05:28:00.165Z,22.73
2024-01-27T05:29:00.157Z,22.72
2024-01-27T05:30:00.272Z,22.71
2024-01-27T05:31:00.240Z,22.70
2024-01-27T05:32:00.273Z,22.71
2024-01-27T05:33:00.533Z,22.71
2024-01-27T05:34:00.546Z,22.70
2024-01-27T05:35:00.658Z,22.71
2024-01-27T05:36:00.408Z,22.70
2024-01-27T05:37:00.458Z,22.70
2024-01-27T05:38:00.469Z,22.71
2024-01-27T05:39:00.539Z,22.71
2024-01-27T05:40:00.597Z,22.71
2024-01-27T05:41:00.574Z,22.71
2024-01-27T05:42:00.657Z,22.72
2024-01-27T05:43:00.637Z,22.70
2024-01-27T05:44:00.661Z,22.70
2024-01-27T05:45:00.774Z,22.71
2024-01-27T05:46:00.736Z,22.71
2024-01-27T05:47:00.745Z,22.72
2024-01-27T05:48:00.857Z,22.72
2024-01-27T05:49:00.930Z,22.71
2024-01-27T05:50:00.745Z,22.71
2024-01-27T05:51:00.828Z,22.72
2024-01-27T05:52:00.748Z,22.71
2024-01-27T05:53:00.761Z,22.72
2024-01-27T05:54:00.796Z,22.72
2024-01-27T05:55:00.751Z,22.72
2024-01-27T05:56:00.751Z,22.72
2024-01-27T05:57:00.772Z,22.72
2024-01-27T05:58:00.773Z,22.72
2024-01-27T05:59:00.753Z,22.72
2024-01-27T06:00:00.806Z,22.72
2024-01-27T06:01:00.793Z,22.71
2024-01-27T06:02:00.787Z,22.71
2024-01-27T06:03:00.860Z,22.71
2024-01-27T06:04:00.893Z,22.72
2024-01-27T06:05:00.770Z,22.72
2024-01-27T06:06:00.841Z,22.71
2024-01-27T06:07:00.859Z,22.71
2024-01-27T06:08:00.758Z,22.71
2024-01-27T06:09:00.816Z,22.70
2024-01-27T06:10:00.774Z,22.71
2024-01-27T06:11:00.777Z,22.71
2024-01-27T06:12:00.788Z,22.71
2024-01-27T06:13:00.778Z,22.71
2024-01-27T06:14:00.790Z,22.71
2024-01-27T06:15:00.894Z,22.71
2024-01-27T06:16:00.792Z,22.70
2024-01-27T06:17:00.788Z,22.70
2024-01-27T06:18:01.022Z,22.70
2024-01-27T06:19:00.917Z,22.71
2024-01-27T06:20:01.092Z,22.70
2024-01-27T06:21:00.893Z,22.70
2024-01-27T06:22:03.585Z,22.70
2024-01-27T06:23:00.786Z,22.68
2024-01-27T06:24:00.834Z,22.70
2024-01-27T06:25:00.786Z,22.71
2024-01-27T06:26:00.789Z,22.71
2024-01-27T06:27:00.822Z,22.71
2024-01-27T06:28:00.766Z,22.71
2024-01-27T06:29:00.764Z,22.70
2024-01-27T06:30:00.821Z,22.70
2024-01-27T06:31:00.772Z,22.71
2024-01-27T06:32:00.764Z,22.70
2024-01-27T06:33:00.943Z,22.69
2024-01-27T06:34:00.792Z,22.68
2024-01-27T06:35:00.826Z,22.67
2024-01-27T06:36:00.865Z,22.69
2024-01-27T06:37:00.770Z,22.69
2024-01-27T06:38:00.756Z,22.68
2024-01-27T06:39:00.771Z,22.69
2024-01-27T06:40:00.766Z,22.68
2024-01-27T06:41:00.771Z,22.69
2024-01-27T06:42:00.845Z,22.69
2024-01-27T06:43:02.940Z,22.69
2024-01-27T06:44:00.850Z,22.69
2024-01-27T06:45:00.942Z,22.68
2024-01-27T06:46:00.851Z,22.68
2024-01-27T06:47:00.853Z,22.68
2024-01-27T06:48:00.980Z,22.68
2024-01-27T06:49:00.982Z,22.68
2024-01-27T06:50:00.905Z,22.69
2024-01-27T06:51:00.928Z,22.69
2024-01-27T06:52:00.864Z,22.69
2024-01-27T06:53:00.870Z,22.68
2024-01-27T06:54:00.890Z,22.68
2024-01-27T06:55:00.894Z,22.67
2024-01-27T06:56:00.866Z,22.67
2024-01-27T06:57:00.887Z,22.67
2024-01-27T06:58:00.891Z,22.66
2024-01-27T06:59:00.864Z,22.66
2024-01-27T07:00:00.914Z,22.66
2024-01-27T07:01:00.919Z,22.67
2024-01-27T07:02:00.886Z,22.67
2024-01-27T07:03:00.916Z,22.66
2024-01-27T07:04:01.024Z,22.67
2024-01-27T07:05:00.912Z,22.66
2024-01-27T07:06:00.920Z,22.67
2024-01-27T07:07:00.917Z,22.68
2024-01-27T07:08:00.892Z,22.70
2024-01-27T07:09:00.931Z,22.71
2024-01-27T07:10:00.887Z,22.72
2024-01-27T07:11:00.881Z,22.73
2024-01-27T07:12:01.011Z,22.73
2024-01-27T07:13:00.882Z,22.74
2024-01-27T07:14:00.906Z,22.74
2024-01-27T07:15:01.036Z,22.73
2024-01-27T07:16:00.910Z,22.74
2024-01-27T07:17:00.887Z,22.74
2024-01-27T07:18:00.977Z,22.74
2024-01-27T07:19:00.973Z,22.74
2024-01-27T07:20:00.974Z,22.74
2024-01-27T07:21:00.947Z,22.74
2024-01-27T07:22:00.971Z,22.74
2024-01-27T07:23:00.896Z,22.75
2024-01-27T07:24:00.990Z,22.75
2024-01-27T07:25:00.900Z,22.75
2024-01-27T07:26:00.897Z,22.75
2024-01-27T07:27:00.980Z,22.74
2024-01-27T07:28:00.906Z,22.74
2024-01-27T07:29:00.944Z,22.75
2024-01-27T07:30:00.949Z,22.75
2024-01-27T07:31:00.891Z,22.75
2024-01-27T07:32:00.893Z,22.76
2024-01-27T07:33:01.009Z,22.76
2024-01-27T07:34:00.998Z,22.75
2024-01-27T07:35:01.033Z,22.76
2024-01-27T07:36:00.971Z,22.76
2024-01-27T07:37:00.991Z,22.76
2024-01-27T07:38:01.020Z,22.76
2024-01-27T07:39:01.106Z,22.76
2024-01-27T07:40:01.131Z,22.76
2024-01-27T07:41:01.125Z,22.76
2024-01-27T07:42:01.228Z,22.77
2024-01-27T07:43:01.193Z,22.77
2024-01-27T07:44:01.230Z,22.77
2024-01-27T07:45:01.437Z,22.77
2024-01-27T07:46:01.298Z,22.77
2024-01-27T07:47:01.337Z,22.76
2024-01-27T07:48:02.365Z,22.76
2024-01-27T07:49:01.467Z,22.77
2024-01-27T07:50:01.495Z,22.76
2024-01-27T07:51:01.518Z,22.75
2024-01-27T07:52:01.520Z,22.75
2024-01-27T07:53:01.539Z,22.75
2024-01-27T07:54:01.619Z,22.75
2024-01-27T07:55:01.601Z,22.75
2024-01-27T07:56:02.002Z,22.76
2024-01-27T07:57:01.766Z,22.76
2024-01-27T07:58:01.649Z,22.77
2024-01-27T07:59:01.651Z,22.78
2024-01-27T08:00:01.735Z,22.77
2024-01-27T08:01:01.700Z,22.78
2024-01-27T08:02:01.639Z,22.77
2024-01-27T08:03:01.667Z,22.77
2024-01-27T08:04:01.773Z,22.77
2024-01-27T08:05:01.658Z,22.78
2024-01-27T08:06:01.691Z,22.79
2024-01-27T08:07:01.684Z,22.79
2024-01-27T08:08:01.645Z,22.79
2024-01-27T08:09:01.657Z,22.80
2024-01-27T08:12:01.661Z,22.68
2024-01-27T08:13:01.597Z,22.75
2024-01-27T08:14:01.614Z,22.77
2024-01-27T08:15:01.692Z,22.79
2024-01-27T08:16:01.588Z,22.81
2024-01-27T08:17:01.614Z,22.81
2024-01-27T08:18:01.735Z,22.81
2024-01-27T08:19:01.789Z,22.82
2024-01-27T08:20:01.663Z,22.81
2024-01-27T08:21:01.611Z,22.82
2024-01-27T08:22:01.579Z,22.82
2024-01-27T08:23:04.053Z,22.83
2024-01-27T08:24:01.667Z,22.84
2024-01-27T08:25:01.577Z,22.84
2024-01-27T08:26:01.569Z,22.85
2024-01-27T08:27:01.610Z,22.85
2024-01-27T08:28:01.588Z,22.86
2024-01-27T08:29:01.599Z,22.86
2024-01-27T08:30:01.624Z,22.86
2024-01-27T08:31:01.555Z,22.86
2024-01-27T08:32:01.597Z,22.85
2024-01-27T08:33:01.788Z,22.85
2024-01-27T08:34:01.652Z,22.85
2024-01-27T08:35:01.629Z,22.85
2024-01-27T08:36:01.591Z,22.85
2024-01-27T08:37:01.552Z,22.85
2024-01-27T08:38:01.560Z,22.86
2024-01-27T08:39:01.573Z,22.87
2024-01-27T08:40:01.557Z,22.88
2024-01-27T08:41:01.538Z,22.88
2024-01-27T08:42:01.545Z,22.88
2024-01-27T08:43:01.535Z,22.87
2024-01-27T08:44:01.518Z,22.87
2024-01-27T08:45:01.580Z,22.88
2024-01-27T08:46:01.523Z,22.88
2024-01-27T08:47:02.880Z,22.87
2024-01-27T08:48:01.570Z,22.87
2024-01-27T08:49:01.672Z,22.87
2024-01-27T08:50:01.551Z,22.88
2024-01-27T08:51:01.552Z,22.88
2024-01-27T08:52:01.489Z,22.90
2024-01-27T08:53:01.507Z,22.91
2024-01-27T08:54:01.565Z,22.91
2024-01-27T08:55:01.544Z,22.91
2024-01-27T08:56:01.570Z,22.91
2024-01-27T08:57:01.657Z,22.92
2024-01-27T08:58:01.641Z,22.96
2024-01-27T08:59:01.660Z,23.00
2024-01-27T09:00:01.737Z,23.04
2024-01-27T09:01:01.793Z,23.08
2024-01-27T09:02:01.727Z,23.10
2024-01-27T09:03:01.808Z,23.10
2024-01-27T09:04:01.840Z,23.11
2024-01-27T09:05:01.901Z,23.10
2024-01-27T09:06:01.917Z,23.09
2024-01-27T09:07:01.846Z,23.14
2024-01-27T09:08:01.837Z,23.20
2024-01-27T09:09:01.861Z,23.27
2024-01-27T09:10:01.827Z,23.32
2024-01-27T09:11:01.832Z,23.34
2024-01-27T09:12:01.864Z,23.35
2024-01-27T09:13:01.863Z,23.32
2024-01-27T09:14:01.840Z,23.29
2024-01-27T09:15:01.927Z,23.27
2024-01-27T09:16:01.864Z,23.26
2024-01-27T09:17:01.880Z,23.27
2024-01-27T09:18:02.018Z,23.30
2024-01-27T09:19:02.063Z,23.38
2024-01-27T09:20:02.119Z,23.44
2024-01-27T09:21:01.913Z,23.48
2024-01-27T09:22:01.927Z,23.52
2024-01-27T09:23:01.922Z,23.56
2024-01-27T09:24:01.950Z,23.55
2024-01-27T09:25:01.992Z,23.57
2024-01-27T09:26:01.968Z,23.63
2024-01-27T09:27:02.021Z,23.68
2024-01-27T09:28:02.080Z,23.70
2024-01-27T09:29:02.117Z,23.71
2024-01-27T09:30:02.270Z,23.68
2024-01-27T09:31:02.279Z,23.71
2024-01-27T09:32:02.314Z,23.70
2024-01-27T09:33:02.496Z,23.76
2024-01-27T09:34:02.565Z,23.79
2024-01-27T09:35:02.549Z,23.78
2024-01-27T09:36:02.547Z,23.77
2024-01-27T09:37:02.554Z,23.76
2024-01-27T09:38:02.617Z,23.74
2024-01-27T09:39:02.673Z,23.71
2024-01-27T09:40:02.740Z,23.69
2024-01-27T09:41:02.779Z,23.65
2024-01-27T09:42:02.879Z,23.63
2024-01-27T09:43:02.905Z,23.62
2024-01-27T09:44:02.945Z,23.60
2024-01-27T09:45:03.052Z,23.58
2024-01-27T09:46:03.033Z,23.56
2024-01-27T09:47:03.080Z,23.54
2024-01-27T09:48:03.284Z,23.53
2024-01-27T09:49:03.355Z,23.55
2024-01-27T09:50:03.247Z,23.55
2024-01-27T09:51:03.313Z,23.55
2024-01-27T09:52:03.298Z,23.53
2024-01-27T09:53:03.337Z,23.52
2024-01-27T09:54:03.450Z,23.51
2024-01-27T09:55:03.424Z,23.50
2024-01-27T09:56:03.446Z,23.50
2024-01-27T09:57:03.486Z,23.49
2024-01-27T09:58:03.501Z,23.49
2024-01-27T09:59:03.517Z,23.49
2024-01-27T10:00:03.694Z,23.47
2024-01-27T10:01:03.765Z,23.47
2024-01-27T10:02:03.634Z,23.47
2024-01-27T10:03:03.697Z,23.47
2024-01-27T10:04:03.721Z,23.47
2024-01-27T10:05:03.701Z,23.47
2024-01-27T10:06:03.824Z,23.47
2024-01-27T10:07:03.837Z,23.47
2024-01-27T10:08:03.789Z,23.47
2024-01-27T10:09:03.906Z,23.46
2024-01-27T10:10:03.903Z,23.46
2024-01-27T10:11:03.834Z,23.45
2024-01-27T10:12:03.897Z,23.44
2024-01-27T10:13:03.832Z,23.45
2024-01-27T10:14:03.806Z,23.45
2024-01-27T10:15:03.857Z,23.45
2024-01-27T10:16:03.826Z,23.45
2024-01-27T10:17:03.787Z,23.45
2024-01-27T10:18:03.830Z,23.44
2024-01-27T10:19:04.276Z,23.43
2024-01-27T10:20:03.912Z,23.44
2024-01-27T10:21:03.902Z,23.43
2024-01-27T10:22:03.754Z,23.42
2024-01-27T10:23:03.755Z,23.42
2024-01-27T10:24:03.820Z,23.41
2024-01-27T10:25:03.751Z,23.42
2024-01-27T10:26:03.748Z,23.41
2024-01-27T10:27:03.786Z,23.42
2024-01-27T10:28:03.730Z,23.43
2024-01-27T10:29:03.730Z,23.42
2024-01-27T10:30:03.778Z,23.43
2024-01-27T10:31:03.717Z,23.42
2024-01-27T10:32:03.942Z,23.42
2024-01-27T10:33:03.801Z,23.43
2024-01-27T10:34:03.871Z,23.43
2024-01-27T10:35:03.833Z,23.42
2024-01-27T10:36:03.932Z,23.43
2024-01-27T10:37:03.857Z,23.43
2024-01-27T10:38:03.852Z,23.44
2024-01-27T10:39:03.856Z,23.44
2024-01-27T10:40:03.868Z,23.45
2024-01-27T10:41:03.821Z,23.47
2024-01-27T10:42:03.925Z,23.67
2024-01-27T10:43:03.912Z,23.78
2024-01-27T10:44:03.832Z,23.78
2024-01-27T10:45:03.896Z,23.75
2024-01-27T10:46:03.876Z,23.77
2024-01-27T10:47:03.910Z,23.76
2024-01-27T10:48:04.108Z,23.72
2024-01-27T10:49:04.028Z,23.70
2024-01-27T10:50:03.969Z,23.70
2024-01-27T10:51:04.004Z,23.74
2024-01-27T10:52:03.968Z,23.81
2024-01-27T10:53:03.953Z,23.94
2024-01-27T10:54:04.050Z,24.00
2024-01-27T10:55:03.949Z,24.06
2024-01-27T10:56:03.926Z,24.32
2024-01-27T10:57:04.041Z,24.38
2024-01-27T10:58:03.916Z,24.29
2024-01-27T10:59:03.938Z,24.22
2024-01-27T11:00:03.933Z,24.19
2024-01-27T11:01:03.987Z,24.23
2024-01-27T11:02:03.887Z,24.33
2024-01-27T11:03:04.083Z,24.68
2024-01-27T11:04:03.967Z,25.01
2024-01-27T11:05:03.919Z,25.29
2024-01-27T11:06:03.849Z,25.51
2024-01-27T11:07:03.850Z,25.63
2024-01-27T11:08:03.833Z,25.81
2024-01-27T11:09:03.830Z,25.98
2024-01-27T11:10:03.825Z,26.14
2024-01-27T11:11:03.784Z,26.27
2024-01-27T11:12:03.775Z,26.39
2024-01-27T11:13:03.754Z,26.48
2024-01-27T11:14:03.754Z,26.60
2024-01-27T11:15:03.743Z,26.69
2024-01-27T11:16:03.666Z,26.78
2024-01-27T11:17:03.637Z,26.88
2024-01-27T11:18:03.687Z,26.99
2024-01-27T11:19:03.643Z,27.07
2024-01-27T11:20:03.728Z,27.14
2024-01-27T11:21:03.608Z,27.22
2024-01-27T11:22:03.570Z,27.28
2024-01-27T11:23:03.567Z,27.35
2024-01-27T11:24:03.598Z,27.40
2024-01-27T11:25:03.557Z,27.46
2024-01-27T11:26:03.528Z,27.50
2024-01-27T11:27:03.658Z,27.54
2024-01-27T11:28:03.547Z,27.53
2024-01-27T11:29:03.591Z,27.53
2024-01-27T11:30:03.640Z,27.57
2024-01-27T11:31:03.661Z,27.62
2024-01-27T11:32:03.674Z,27.66
2024-01-27T11:33:03.740Z,27.69
2024-01-27T11:34:03.785Z,27.71
2024-01-27T11:35:03.748Z,27.71
2024-01-27T11:36:03.579Z,27.73
2024-01-27T11:37:03.496Z,27.73
2024-01-27T11:38:03.455Z,27.74
2024-01-27T11:39:03.525Z,27.77
2024-01-27T11:40:03.386Z,27.78
2024-01-27T11:41:03.438Z,27.80
2024-01-27T11:42:03.365Z,27.82
2024-01-27T11:43:05.899Z,27.80
2024-01-27T11:44:03.499Z,27.80
2024-01-27T11:45:03.290Z,27.81
2024-01-27T11:46:03.194Z,27.82
2024-01-27T11:47:03.156Z,27.83
2024-01-27T11:48:03.302Z,27.79
2024-01-27T11:49:03.166Z,27.80
2024-01-27T11:50:03.164Z,27.80
2024-01-27T11:51:03.069Z,27.79
2024-01-27T11:52:02.974Z,27.79
2024-01-27T11:53:02.937Z,27.79
2024-01-27T11:54:02.938Z,27.81
2024-01-27T11:55:02.873Z,27.82
2024-01-27T11:56:02.878Z,27.82
2024-01-27T11:57:02.851Z,27.85
2024-01-27T11:58:02.771Z,27.87
2024-01-27T11:59:02.733Z,27.89
2024-01-27T12:00:02.868Z,27.92
2024-01-27T12:01:02.709Z,27.95
2024-01-27T12:02:02.632Z,28.00
2024-01-27T12:03:02.688Z,28.03
2024-01-27T12:04:02.579Z,28.07
2024-01-27T12:05:02.584Z,28.12
2024-01-27T12:06:02.600Z,28.16
2024-01-27T12:07:02.618Z,28.20
2024-01-27T12:08:02.460Z,28.25
2024-01-27T12:09:02.476Z,28.30
2024-01-27T12:10:02.371Z,28.35
2024-01-27T12:11:02.369Z,28.37
2024-01-27T12:12:02.328Z,28.43
2024-01-27T12:13:02.290Z,28.47
2024-01-27T12:14:02.219Z,28.53
2024-01-27T12:15:02.227Z,28.44
2024-01-27T12:16:02.162Z,28.32
2024-01-27T12:17:02.124Z,28.21
2024-01-27T12:18:02.347Z,28.12
2024-01-27T12:19:02.105Z,28.08
2024-01-27T12:20:02.184Z,28.06
2024-01-27T12:21:02.003Z,28.10
2024-01-27T12:22:01.950Z,28.12
2024-01-27T12:23:01.928Z,28.14
2024-01-27T12:24:02.123Z,28.14
2024-01-27T12:25:01.867Z,28.14
2024-01-27T12:26:01.879Z,28.20
2024-01-27T12:27:01.870Z,28.45
2024-01-27T12:28:01.801Z,28.89
2024-01-27T12:29:01.798Z,29.25
2024-01-27T12:30:01.811Z,29.56
2024-01-27T12:31:01.740Z,29.86
2024-01-27T12:32:01.712Z,30.07
2024-01-27T12:33:01.862Z,30.29
2024-01-27T12:34:01.842Z,30.45
2024-01-27T12:35:01.776Z,30.61
2024-01-27T12:36:01.639Z,30.76
2024-01-27T12:37:01.589Z,30.88
2024-01-27T12:38:01.534Z,31.01
2024-01-27T12:39:01.777Z,31.14
2024-01-27T12:40:01.581Z,31.25
2024-01-27T12:41:01.644Z,31.36
2024-01-27T12:42:01.646Z,31.46
2024-01-27T12:43:01.688Z,31.55
2024-01-27T12:44:01.693Z,31.63
2024-01-27T12:45:01.713Z,31.73
2024-01-27T12:46:01.753Z,31.78
2024-01-27T12:47:01.774Z,31.85
2024-01-27T12:48:01.905Z,31.94
2024-01-27T12:49:01.931Z,32.02
2024-01-27T12:50:01.973Z,32.14
2024-01-27T12:51:01.974Z,32.23
2024-01-27T12:52:01.891Z,32.31
2024-01-27T12:53:01.908Z,32.41
2024-01-27T12:54:01.968Z,32.44
2024-01-27T12:55:01.950Z,32.47